createdAt,value
2018-11-11T00:00:14.858Z,19.49
2018-11-11T00:01:14.847Z,19.46
2018-11-11T00:02:14.835Z,19.43
2018-11-11T00:03:14.844Z,19.43
2018-11-11T00:04:14.823Z,19.43
2018-11-11T00:05:14.801Z,19.46
2018-11-11T00:06:14.791Z,19.45
2018-11-11T00:07:14.777Z,19.49
2018-11-11T00:08:14.766Z,19.45
2018-11-11T00:09:14.774Z,19.42
2018-11-11T00:10:14.754Z,19.45
2018-11-11T00:11:14.732Z,19.47
2018-11-11T00:12:14.721Z,19.49
2018-11-11T00:13:14.710Z,19.47
2018-11-11T00:14:14.714Z,19.49
2018-11-11T00:15:14.687Z,19.49
2018-11-11T00:16:14.682Z,19.49
2018-11-11T00:17:14.665Z,19.45
2018-11-11T00:18:14.657Z,19.45
2018-11-11T00:19:14.662Z,19.43
2018-11-11T00:20:14.631Z,19.52
2018-11-11T00:21:14.618Z,19.46
2018-11-11T00:22:14.621Z,19.47
2018-11-11T00:23:14.614Z,19.49
2018-11-11T00:24:14.600Z,19.49
2018-11-11T00:25:14.575Z,19.43
2018-11-11T00:26:14.563Z,19.53
2018-11-11T00:27:14.553Z,19.46
2018-11-11T00:28:14.552Z,19.42
2018-11-11T00:29:14.544Z,19.46
2018-11-11T00:30:14.517Z,19.46
2018-11-11T00:31:14.507Z,19.50
2018-11-11T00:32:14.493Z,19.40
2018-11-11T00:33:14.482Z,19.42
2018-11-11T00:34:14.496Z,19.45
2018-11-11T00:35:14.463Z,19.46
2018-11-11T00:36:14.455Z,19.45
2018-11-11T00:37:14.437Z,19.45
2018-11-11T00:38:14.427Z,19.40
2018-11-11T00:39:14.430Z,19.47
2018-11-11T00:40:14.414Z,19.43
2018-11-11T00:41:14.394Z,19.50
2018-11-11T00:42:14.380Z,19.45
2018-11-11T00:43:14.368Z,19.43
2018-11-11T00:44:14.374Z,19.43
2018-11-11T00:45:14.345Z,19.42
2018-11-11T00:46:14.345Z,19.43
2018-11-11T00:47:14.321Z,19.45
2018-11-11T00:48:14.310Z,19.55
2018-11-11T00:49:14.326Z,19.47
2018-11-11T00:50:14.293Z,19.45
2018-11-11T00:51:14.279Z,19.45
2018-11-11T00:52:14.280Z,19.52
2018-11-11T00:53:14.255Z,19.49
2018-11-11T00:54:14.263Z,19.43
2018-11-11T00:55:14.234Z,19.49
2018-11-11T00:56:14.219Z,19.50
2018-11-11T00:57:14.209Z,19.45
2018-11-11T00:58:14.208Z,19.46
2018-11-11T00:59:14.201Z,19.43
2018-11-11T01:00:14.175Z,19.47
2018-11-11T01:01:14.166Z,19.49
2018-11-11T01:02:14.153Z,19.46
2018-11-11T01:03:14.140Z,19.47
2018-11-11T01:04:14.154Z,19.45
2018-11-11T01:05:14.117Z,19.45
2018-11-11T01:06:14.107Z,19.49
2018-11-11T01:07:14.095Z,19.47
2018-11-11T01:08:14.082Z,19.43
2018-11-11T01:09:14.085Z,19.50
2018-11-11T01:10:14.068Z,19.42
2018-11-11T01:11:14.051Z,19.47
2018-11-11T01:12:14.132Z,19.45
2018-11-11T01:13:14.029Z,19.53
2018-11-11T01:14:14.049Z,19.46
2018-11-11T01:15:14.005Z,19.43
2018-11-11T01:16:13.998Z,19.46
2018-11-11T01:17:13.982Z,19.52
2018-11-11T01:18:13.968Z,19.47
2018-11-11T01:19:13.960Z,19.47
2018-11-11T01:20:13.960Z,19.45
2018-11-11T01:21:13.937Z,19.49
2018-11-11T01:22:13.929Z,19.49
2018-11-11T01:23:13.914Z,19.52
2018-11-11T01:24:13.902Z,19.47
2018-11-11T01:25:13.909Z,19.52
2018-11-11T01:26:13.878Z,19.50
2018-11-11T01:27:13.867Z,19.49
2018-11-11T01:28:13.863Z,19.52
2018-11-11T01:29:13.843Z,19.50
2018-11-11T01:30:13.850Z,19.45
2018-11-11T01:31:13.856Z,19.46
2018-11-11T01:32:13.812Z,19.49
2018-11-11T01:33:13.798Z,19.50
2018-11-11T01:34:13.794Z,19.53
2018-11-11T01:35:13.791Z,19.45
2018-11-11T01:36:13.767Z,19.46
2018-11-11T01:37:13.754Z,19.50
2018-11-11T01:38:13.741Z,19.49
2018-11-11T01:39:13.737Z,19.49
2018-11-11T01:40:13.744Z,19.55
2018-11-11T01:41:13.709Z,19.55
2018-11-11T01:42:13.695Z,19.49
2018-11-11T01:43:13.684Z,19.45
2018-11-11T01:44:13.676Z,19.45
2018-11-11T01:45:13.678Z,19.52
2018-11-11T01:46:13.660Z,19.47
2018-11-11T01:47:13.641Z,19.50
2018-11-11T01:48:13.627Z,19.53
2018-11-11T01:49:13.617Z,19.50
2018-11-11T01:50:13.624Z,19.58
2018-11-11T01:51:13.595Z,19.50
2018-11-11T01:52:13.588Z,19.53
2018-11-11T01:53:13.576Z,19.47
2018-11-11T01:54:13.559Z,19.50
2018-11-11T01:55:13.565Z,19.50
2018-11-11T01:56:13.540Z,19.45
2018-11-11T01:57:13.528Z,19.50
2018-11-11T01:58:13.525Z,19.45
2018-11-11T01:59:13.502Z,19.47
2018-11-11T02:00:13.509Z,19.53
2018-11-11T02:01:13.478Z,19.55
2018-11-11T02:02:13.470Z,19.55
2018-11-11T02:03:13.459Z,19.55
2018-11-11T02:04:13.457Z,19.49
2018-11-11T02:05:13.449Z,19.57
2018-11-11T02:06:13.426Z,19.53
2018-11-11T02:07:13.416Z,19.45
2018-11-11T02:08:13.400Z,19.45
2018-11-11T02:09:13.392Z,19.47
2018-11-11T02:10:13.405Z,19.49
2018-11-11T02:11:13.369Z,19.52
2018-11-11T02:12:13.356Z,19.52
2018-11-11T02:13:13.344Z,19.43
2018-11-11T02:14:13.336Z,19.49
2018-11-11T02:15:13.336Z,19.45
2018-11-11T02:16:13.319Z,19.46
2018-11-11T02:17:13.298Z,19.49
2018-11-11T02:18:13.287Z,19.43
2018-11-11T02:19:13.276Z,19.49
2018-11-11T02:20:13.281Z,19.46
2018-11-11T02:21:13.398Z,19.55
2018-11-11T02:22:13.252Z,19.45
2018-11-11T02:23:13.232Z,19.55
2018-11-11T02:24:13.219Z,19.53
2018-11-11T02:25:13.225Z,19.53
2018-11-11T02:26:13.200Z,19.49
2018-11-11T02:27:13.187Z,19.46
2018-11-11T02:28:13.183Z,19.50
2018-11-11T02:29:13.162Z,19.47
2018-11-11T02:30:13.168Z,19.60
2018-11-11T02:31:13.140Z,19.58
2018-11-11T02:32:13.130Z,19.50
2018-11-11T02:33:13.120Z,19.45
2018-11-11T02:34:13.116Z,19.47
2018-11-11T02:35:13.111Z,19.55
2018-11-11T02:36:13.083Z,19.49
2018-11-11T02:37:13.088Z,19.50
2018-11-11T02:38:13.068Z,19.57
2018-11-11T02:39:13.050Z,19.53
2018-11-11T02:40:13.060Z,19.50
2018-11-11T02:41:13.026Z,19.58
2018-11-11T02:42:13.015Z,19.49
2018-11-11T02:43:13.005Z,19.45
2018-11-11T02:44:12.999Z,19.47
2018-11-11T02:45:12.998Z,19.49
2018-11-11T02:46:12.992Z,19.55
2018-11-11T02:47:12.959Z,19.47
2018-11-11T02:48:12.948Z,19.53
2018-11-11T02:49:12.935Z,19.61
2018-11-11T02:50:12.933Z,19.64
2018-11-11T02:51:12.928Z,19.49
2018-11-11T02:52:12.908Z,19.57
2018-11-11T02:53:12.890Z,19.47
2018-11-11T02:54:12.878Z,19.50
2018-11-11T02:55:12.868Z,19.50
2018-11-11T02:56:12.869Z,19.50
2018-11-11T02:57:12.843Z,19.55
2018-11-11T02:58:12.848Z,19.55
2018-11-11T02:59:12.834Z,19.53
2018-11-11T03:00:12.813Z,19.50
2018-11-11T03:01:12.814Z,19.50
2018-11-11T03:02:12.791Z,19.52
2018-11-11T03:03:12.783Z,19.61
2018-11-11T03:04:12.811Z,19.55
2018-11-11T03:05:12.764Z,19.53
2018-11-11T03:06:12.757Z,19.61
2018-11-11T03:07:12.732Z,19.49
2018-11-11T03:08:12.718Z,19.58
2018-11-11T03:09:12.708Z,19.61
2018-11-11T03:10:12.703Z,19.60
2018-11-11T03:11:12.698Z,19.55
2018-11-11T03:12:12.715Z,19.53
2018-11-11T03:13:12.695Z,19.55
2018-11-11T03:14:12.689Z,19.52
2018-11-11T03:15:12.676Z,19.55
2018-11-11T03:16:12.713Z,19.50
2018-11-11T03:17:12.615Z,19.47
2018-11-11T03:18:12.605Z,19.49
2018-11-11T03:19:12.599Z,19.58
2018-11-11T03:20:12.582Z,19.55
2018-11-11T03:21:12.585Z,19.49
2018-11-11T03:22:12.575Z,19.61
2018-11-11T03:23:12.553Z,19.52
2018-11-11T03:24:12.539Z,19.57
2018-11-11T03:25:12.527Z,19.55
2018-11-11T03:26:12.531Z,19.53
2018-11-11T03:27:12.502Z,19.52
2018-11-11T03:28:12.501Z,19.57
2018-11-11T03:29:12.485Z,19.52
2018-11-11T03:30:12.480Z,19.50
2018-11-11T03:31:12.475Z,19.53
2018-11-11T03:32:12.448Z,19.50
2018-11-11T03:33:12.432Z,19.55
2018-11-11T03:34:12.430Z,19.52
2018-11-11T03:35:12.415Z,19.46
2018-11-11T03:36:12.429Z,19.55
2018-11-11T03:37:12.396Z,19.58
2018-11-11T03:38:12.380Z,19.52
2018-11-11T03:39:12.370Z,19.52
2018-11-11T03:40:12.360Z,19.61
2018-11-11T03:41:12.345Z,19.58
2018-11-11T03:42:12.351Z,19.57
2018-11-11T03:43:12.327Z,19.55
2018-11-11T03:44:12.313Z,19.55
2018-11-11T03:45:12.299Z,19.52
2018-11-11T03:46:12.299Z,19.55
2018-11-11T03:47:12.291Z,19.55
2018-11-11T03:48:12.279Z,19.58
2018-11-11T03:49:12.253Z,19.55
2018-11-11T03:50:12.243Z,19.57
2018-11-11T03:51:12.230Z,19.50
2018-11-11T03:52:12.243Z,19.64
2018-11-11T03:53:12.215Z,19.53
2018-11-11T03:54:12.198Z,19.55
2018-11-11T03:55:12.189Z,19.49
2018-11-11T03:56:12.174Z,19.49
2018-11-11T03:57:12.177Z,19.61
2018-11-11T03:58:12.163Z,19.58
2018-11-11T03:59:12.141Z,19.49
2018-11-11T04:00:12.134Z,19.53
2018-11-11T04:01:12.117Z,19.53
2018-11-11T04:02:12.122Z,19.47
2018-11-11T04:03:12.097Z,19.64
2018-11-11T04:04:12.094Z,19.61
2018-11-11T04:05:12.092Z,19.58
2018-11-11T04:06:12.061Z,19.60
2018-11-11T04:07:12.061Z,19.53
2018-11-11T04:08:12.039Z,19.61
2018-11-11T04:09:12.026Z,19.50
2018-11-11T04:10:12.052Z,19.64
2018-11-11T04:11:12.007Z,19.52
2018-11-11T04:12:12.008Z,19.50
2018-11-11T04:13:11.986Z,19.61
2018-11-11T04:14:11.969Z,19.52
2018-11-11T04:15:11.969Z,19.55
2018-11-11T04:16:11.962Z,19.57
2018-11-11T04:17:11.955Z,19.60
2018-11-11T04:18:11.930Z,19.57
2018-11-11T04:19:11.914Z,19.57
2018-11-11T04:20:11.904Z,19.46
2018-11-11T04:21:11.895Z,19.49
2018-11-11T04:22:11.902Z,19.50
2018-11-11T04:23:11.872Z,19.61
2018-11-11T04:24:11.859Z,19.47
2018-11-11T04:25:11.848Z,19.60
2018-11-11T04:26:11.855Z,19.58
2018-11-11T04:27:11.849Z,19.50
2018-11-11T04:28:11.815Z,19.55
2018-11-11T04:29:11.809Z,19.61
2018-11-11T04:30:11.791Z,19.53
2018-11-11T04:31:11.782Z,19.53
2018-11-11T04:32:11.784Z,19.57
2018-11-11T04:33:11.766Z,19.60
2018-11-11T04:34:11.751Z,19.53
2018-11-11T04:35:11.738Z,19.47
2018-11-11T04:36:11.734Z,19.57
2018-11-11T04:37:11.751Z,19.55
2018-11-11T04:38:11.704Z,19.55
2018-11-11T04:39:11.766Z,19.52
2018-11-11T04:40:11.684Z,19.57
2018-11-11T04:41:11.664Z,19.49
2018-11-11T04:42:11.669Z,19.53
2018-11-11T04:43:11.644Z,19.50
2018-11-11T04:44:11.636Z,19.49
2018-11-11T04:45:11.641Z,19.50
2018-11-11T04:46:11.641Z,19.61
2018-11-11T04:47:11.614Z,19.61
2018-11-11T04:48:11.593Z,19.57
2018-11-11T04:49:11.578Z,19.57
2018-11-11T04:50:11.568Z,19.60
2018-11-11T04:51:11.562Z,19.53
2018-11-11T04:52:11.545Z,19.58
2018-11-11T04:53:11.547Z,19.55
2018-11-11T04:54:11.519Z,19.57
2018-11-11T04:55:11.515Z,19.64
2018-11-11T04:56:11.500Z,19.67
2018-11-11T04:57:11.497Z,19.58
2018-11-11T04:58:11.489Z,19.62
2018-11-11T04:59:11.470Z,19.58
2018-11-11T05:00:11.449Z,19.57
2018-11-11T05:01:11.449Z,19.53
2018-11-11T05:02:11.428Z,19.60
2018-11-11T05:03:11.441Z,19.60
2018-11-11T05:04:11.408Z,19.60
2018-11-11T05:05:11.399Z,19.62
2018-11-11T05:06:11.383Z,19.62
2018-11-11T05:07:11.374Z,19.55
2018-11-11T05:08:11.378Z,19.58
2018-11-11T05:09:11.361Z,19.55
2018-11-11T05:10:11.339Z,19.57
2018-11-11T05:11:11.328Z,19.60
2018-11-11T05:12:11.318Z,19.58
2018-11-11T05:13:11.321Z,19.60
2018-11-11T05:14:11.291Z,19.62
2018-11-11T05:15:11.290Z,19.57
2018-11-11T05:16:11.269Z,19.61
2018-11-11T05:17:11.259Z,19.60
2018-11-11T05:18:11.261Z,19.60
2018-11-11T05:19:11.239Z,19.57
2018-11-11T05:20:11.223Z,19.53
2018-11-11T05:21:11.225Z,19.57
2018-11-11T05:22:11.200Z,19.57
2018-11-11T05:23:11.258Z,19.58
2018-11-11T05:24:11.178Z,19.61
2018-11-11T05:25:11.167Z,19.57
2018-11-11T05:26:11.155Z,19.58
2018-11-11T05:27:11.156Z,19.57
2018-11-11T05:28:11.149Z,19.58
2018-11-11T05:29:11.123Z,19.57
2018-11-11T05:30:11.111Z,19.60
2018-11-11T05:31:11.102Z,19.55
2018-11-11T05:32:11.091Z,19.61
2018-11-11T05:33:11.100Z,19.61
2018-11-11T05:34:11.068Z,19.57
2018-11-11T05:35:11.056Z,19.57
2018-11-11T05:36:11.043Z,19.52
2018-11-11T05:37:11.035Z,19.60
2018-11-11T05:38:11.036Z,19.58
2018-11-11T05:39:11.022Z,19.58
2018-11-11T05:40:10.997Z,19.58
2018-11-11T05:41:10.988Z,19.58
2018-11-11T05:42:10.977Z,19.55
2018-11-11T05:43:10.981Z,19.57
2018-11-11T05:44:10.953Z,19.49
2018-11-11T05:45:10.950Z,19.47
2018-11-11T05:46:10.930Z,19.45
2018-11-11T05:47:10.919Z,19.43
2018-11-11T05:48:10.922Z,19.45
2018-11-11T05:49:10.901Z,19.45
2018-11-11T05:50:10.885Z,19.45
2018-11-11T05:51:10.886Z,19.40
2018-11-11T05:52:10.862Z,19.46
2018-11-11T05:53:10.869Z,19.42
2018-11-11T05:54:10.840Z,19.40
2018-11-11T05:55:10.828Z,19.38
2018-11-11T05:56:10.820Z,19.43
2018-11-11T05:57:10.820Z,19.40
2018-11-11T05:58:10.811Z,19.38
2018-11-11T05:59:10.785Z,19.38
2018-11-11T06:00:10.773Z,19.35
2018-11-11T06:01:10.759Z,19.42
2018-11-11T06:02:10.749Z,19.40
2018-11-11T06:03:10.768Z,19.28
2018-11-11T06:04:10.726Z,19.38
2018-11-11T06:05:10.716Z,19.31
2018-11-11T06:06:10.703Z,19.38
2018-11-11T06:07:10.692Z,19.40
2018-11-11T06:08:10.703Z,19.35
2018-11-11T06:09:10.680Z,19.40
2018-11-11T06:10:10.656Z,19.25
2018-11-11T06:11:10.648Z,19.30
2018-11-11T06:12:10.638Z,19.23
2018-11-11T06:13:10.655Z,19.27
2018-11-11T06:14:10.612Z,19.39
2018-11-11T06:15:10.612Z,19.27
2018-11-11T06:16:10.588Z,19.25
2018-11-11T06:17:10.768Z,19.23
2018-11-11T06:18:10.568Z,19.17
2018-11-11T06:19:10.569Z,19.30
2018-11-11T06:20:11.593Z,19.25
2018-11-11T06:21:10.531Z,19.25
2018-11-11T06:22:10.521Z,19.27
2018-11-11T06:23:10.519Z,19.27
2018-11-11T06:24:10.512Z,19.21
2018-11-11T06:25:10.486Z,19.28
2018-11-11T06:26:10.474Z,19.21
2018-11-11T06:27:10.463Z,19.30
2018-11-11T06:28:10.468Z,19.23
2018-11-11T06:29:10.459Z,19.27
2018-11-11T06:30:10.431Z,19.23
2018-11-11T06:31:10.418Z,19.23
2018-11-11T06:32:10.407Z,19.24
2018-11-11T06:33:10.395Z,19.21
2018-11-11T06:34:10.553Z,19.27
2018-11-11T06:35:10.376Z,19.27
2018-11-11T06:36:10.361Z,19.25
2018-11-11T06:37:10.350Z,19.35
2018-11-11T06:38:10.338Z,19.39
2018-11-11T06:39:10.341Z,19.46
2018-11-11T06:40:10.321Z,19.50
2018-11-11T06:41:10.304Z,19.49
2018-11-11T06:42:10.294Z,19.57
2018-11-11T06:43:10.282Z,19.60
2018-11-11T06:44:10.298Z,19.60
2018-11-11T06:45:10.261Z,19.62
2018-11-11T06:46:10.257Z,19.64
2018-11-11T06:47:10.242Z,19.64
2018-11-11T06:48:10.360Z,19.71
2018-11-11T06:49:10.227Z,19.71
2018-11-11T06:50:10.200Z,19.72
2018-11-11T06:51:10.192Z,19.64
2018-11-11T06:52:10.185Z,19.71
2018-11-11T06:53:10.167Z,19.75
2018-11-11T06:54:10.171Z,19.78
2018-11-11T06:55:10.143Z,19.75
2018-11-11T06:56:10.133Z,19.75
2018-11-11T06:57:10.122Z,19.76
2018-11-11T06:58:11.071Z,19.72
2018-11-11T06:59:10.114Z,19.76
2018-11-11T07:00:10.086Z,19.83
2018-11-11T07:01:10.174Z,19.86
2018-11-11T07:02:10.065Z,19.79
2018-11-11T07:03:10.056Z,19.79
2018-11-11T07:04:10.064Z,19.78
2018-11-11T07:05:10.049Z,19.79
2018-11-11T07:06:10.019Z,19.75
2018-11-11T07:07:10.007Z,19.75
2018-11-11T07:08:09.996Z,19.82
2018-11-11T07:09:10.412Z,19.76
2018-11-11T07:10:09.974Z,19.92
2018-11-11T07:11:09.964Z,19.75
2018-11-11T07:12:09.950Z,19.76
2018-11-11T07:13:09.940Z,19.80
2018-11-11T07:14:10.339Z,19.80
2018-11-11T07:15:10.348Z,19.80
2018-11-11T07:16:09.909Z,19.79
2018-11-11T07:17:09.896Z,19.78
2018-11-11T07:18:09.884Z,19.76
2018-11-11T07:19:09.875Z,19.75
2018-11-11T07:20:09.978Z,19.79
2018-11-11T07:21:09.859Z,19.76
2018-11-11T07:22:09.839Z,19.71
2018-11-11T07:23:09.828Z,19.80
2018-11-11T07:24:09.874Z,19.68
2018-11-11T07:25:09.831Z,19.65
2018-11-11T07:26:09.793Z,19.67
2018-11-11T07:27:09.793Z,19.72
2018-11-11T07:28:09.773Z,19.65
2018-11-11T07:29:09.766Z,19.62
2018-11-11T07:30:09.769Z,19.68
2018-11-11T07:31:09.740Z,19.67
2018-11-11T07:32:09.728Z,19.68
2018-11-11T07:33:09.720Z,19.67
2018-11-11T07:34:09.706Z,19.58
2018-11-11T07:35:09.716Z,19.60
2018-11-11T07:36:09.830Z,19.58
2018-11-11T07:37:09.673Z,19.58
2018-11-11T07:38:09.661Z,19.58
2018-11-11T07:39:09.655Z,19.60
2018-11-11T07:40:09.660Z,19.58
2018-11-11T07:41:09.629Z,19.60
2018-11-11T07:42:09.650Z,19.58
2018-11-11T07:43:09.605Z,19.52
2018-11-11T07:44:09.594Z,19.61
2018-11-11T07:45:09.603Z,19.53
2018-11-11T07:46:09.570Z,19.58
2018-11-11T07:47:09.560Z,19.58
2018-11-11T07:48:09.551Z,19.52
2018-11-11T07:49:09.538Z,19.58
2018-11-11T07:50:09.543Z,19.55
2018-11-11T07:51:09.527Z,19.60
2018-11-11T07:52:09.599Z,19.47
2018-11-11T07:53:09.492Z,19.52
2018-11-11T07:54:09.481Z,19.58
2018-11-11T07:55:09.553Z,19.58
2018-11-11T07:56:09.458Z,19.55
2018-11-11T07:57:09.454Z,19.46
2018-11-11T07:58:09.435Z,19.53
2018-11-11T07:59:09.424Z,19.55
2018-11-11T08:00:09.431Z,19.53
2018-11-11T08:01:09.400Z,19.50
2018-11-11T08:02:09.506Z,19.52
2018-11-11T08:03:09.438Z,19.45
2018-11-11T08:04:09.369Z,19.53
2018-11-11T08:05:09.371Z,19.45
2018-11-11T08:06:09.347Z,19.46
2018-11-11T08:07:09.335Z,19.45
2018-11-11T08:08:09.323Z,19.45
2018-11-11T08:09:09.319Z,19.49
2018-11-11T08:10:09.318Z,19.49
2018-11-11T08:11:09.330Z,19.43
2018-11-11T08:12:09.277Z,19.47
2018-11-11T08:13:09.268Z,19.40
2018-11-11T08:14:09.255Z,19.39
2018-11-11T08:15:09.266Z,19.40
2018-11-11T08:16:09.233Z,19.45
2018-11-11T08:17:09.221Z,19.42
2018-11-11T08:18:09.208Z,19.39
2018-11-11T08:19:09.196Z,19.40
2018-11-11T08:20:09.204Z,19.42
2018-11-11T08:21:09.187Z,19.31
2018-11-11T08:22:09.175Z,19.40
2018-11-11T08:23:09.152Z,19.31
2018-11-11T08:24:09.139Z,19.35
2018-11-11T08:25:09.145Z,19.23
2018-11-11T08:26:09.120Z,19.31
2018-11-11T08:27:09.114Z,19.27
2018-11-11T08:28:09.097Z,19.23
2018-11-11T08:29:09.082Z,19.27
2018-11-11T08:30:09.071Z,19.23
2018-11-11T08:31:09.077Z,19.25
2018-11-11T08:32:09.108Z,19.25
2018-11-11T08:33:09.047Z,19.24
2018-11-11T08:34:09.026Z,19.28
2018-11-11T08:35:09.014Z,19.23
2018-11-11T08:36:09.019Z,19.30
2018-11-11T08:37:08.993Z,19.24
2018-11-11T08:38:08.981Z,19.23
2018-11-11T08:39:08.981Z,19.20
2018-11-11T08:40:08.958Z,19.27
2018-11-11T08:41:08.961Z,19.21
2018-11-11T08:42:09.050Z,19.24
2018-11-11T08:43:08.925Z,19.27
2018-11-11T08:44:08.913Z,19.21
2018-11-11T08:45:08.899Z,19.24
2018-11-11T08:46:08.917Z,19.25
2018-11-11T08:47:08.880Z,19.31
2018-11-11T08:48:08.872Z,19.30
2018-11-11T08:49:08.858Z,19.28
2018-11-11T08:50:08.844Z,19.21
2018-11-11T08:51:08.847Z,19.24
2018-11-11T08:52:08.834Z,19.25
2018-11-11T08:53:08.810Z,19.28
2018-11-11T08:54:08.799Z,19.23
2018-11-11T08:55:08.786Z,19.21
2018-11-11T08:56:08.791Z,19.27
2018-11-11T08:57:08.764Z,19.28
2018-11-11T08:58:08.818Z,19.23
2018-11-11T08:59:08.740Z,19.24
2018-11-11T09:00:08.731Z,19.23
2018-11-11T09:01:08.737Z,19.25
2018-11-11T09:02:08.708Z,19.23
2018-11-11T09:03:08.698Z,19.23
2018-11-11T09:04:08.691Z,19.24
2018-11-11T09:05:08.675Z,19.23
2018-11-11T09:06:08.675Z,19.25
2018-11-11T09:07:08.652Z,19.17
2018-11-11T09:08:08.638Z,19.32
2018-11-11T09:09:08.628Z,19.28
2018-11-11T09:10:08.624Z,19.34
2018-11-11T09:11:08.617Z,19.39
2018-11-11T09:12:08.592Z,19.34
2018-11-11T09:13:08.582Z,19.32
2018-11-11T09:14:08.570Z,19.39
2018-11-11T09:15:08.561Z,19.45
2018-11-11T09:16:08.570Z,19.39
2018-11-11T09:17:08.574Z,19.40
2018-11-11T09:18:08.530Z,19.35
2018-11-11T09:19:08.514Z,19.40
2018-11-11T09:20:08.500Z,19.43
2018-11-11T09:21:08.513Z,19.45
2018-11-11T09:22:08.487Z,19.39
2018-11-11T09:23:08.466Z,19.40
2018-11-11T09:24:08.459Z,19.42
2018-11-11T09:25:08.443Z,19.40
2018-11-11T09:26:08.447Z,19.40
2018-11-11T09:27:08.420Z,19.39
2018-11-11T09:28:08.427Z,19.38
2018-11-11T09:29:08.398Z,19.35
2018-11-11T09:30:08.386Z,19.40
2018-11-11T09:31:08.417Z,19.34
2018-11-11T09:32:08.363Z,19.35
2018-11-11T09:33:08.351Z,19.40
2018-11-11T09:34:08.349Z,19.42
2018-11-11T09:35:08.366Z,19.39
2018-11-11T09:36:08.337Z,19.39
2018-11-11T09:37:08.306Z,19.39
2018-11-11T09:38:08.294Z,19.39
2018-11-11T09:39:08.354Z,19.45
2018-11-11T09:40:08.281Z,19.39
2018-11-11T09:41:08.276Z,19.43
2018-11-11T09:42:08.249Z,19.42
2018-11-11T09:43:08.239Z,19.38
2018-11-11T09:44:08.229Z,19.46
2018-11-11T09:45:08.215Z,19.47
2018-11-11T09:46:08.230Z,19.43
2018-11-11T09:47:08.190Z,19.50
2018-11-11T09:48:08.181Z,19.57
2018-11-11T09:49:08.169Z,19.57
2018-11-11T09:50:08.160Z,19.61
2018-11-11T09:51:08.178Z,19.60
2018-11-11T09:52:08.149Z,19.61
2018-11-11T09:53:08.126Z,19.65
2018-11-11T09:54:08.153Z,19.70
2018-11-11T09:55:08.101Z,19.62
2018-11-11T09:56:08.090Z,19.68
2018-11-11T09:57:08.094Z,19.67
2018-11-11T09:58:08.077Z,19.67
2018-11-11T09:59:08.057Z,19.70
2018-11-11T10:00:08.044Z,19.79
2018-11-11T10:01:08.037Z,19.76
2018-11-11T10:02:08.036Z,19.78
2018-11-11T10:03:08.011Z,19.72
2018-11-11T10:04:08.010Z,19.82
2018-11-11T10:05:07.986Z,19.83
2018-11-11T10:06:07.979Z,19.79
2018-11-11T10:07:08.117Z,19.79
2018-11-11T10:08:07.960Z,19.82
2018-11-11T10:09:07.944Z,19.82
2018-11-11T10:10:07.947Z,19.78
2018-11-11T10:11:07.920Z,19.79
2018-11-11T10:12:07.924Z,19.95
2018-11-11T10:13:07.898Z,19.92
2018-11-11T10:14:07.887Z,19.89
2018-11-11T10:15:07.881Z,19.92
2018-11-11T10:16:07.878Z,19.79
2018-11-11T10:17:07.869Z,19.90
2018-11-11T10:18:07.842Z,19.90
2018-11-11T10:19:07.833Z,19.94
2018-11-11T10:20:07.836Z,19.90
2018-11-11T10:21:07.808Z,19.92
2018-11-11T10:22:07.837Z,20.01
2018-11-11T10:23:07.785Z,19.95
2018-11-11T10:24:07.774Z,19.94
2018-11-11T10:25:07.764Z,20.08
2018-11-11T10:26:07.753Z,19.97
2018-11-11T10:27:07.774Z,19.95
2018-11-11T10:28:07.747Z,19.89
2018-11-11T10:29:07.738Z,19.97
2018-11-11T10:30:07.709Z,19.90
2018-11-11T10:31:07.697Z,19.90
2018-11-11T10:32:07.689Z,20.01
2018-11-11T10:33:07.700Z,20.10
2018-11-11T10:34:07.665Z,20.12
2018-11-11T10:35:07.652Z,20.22
2018-11-11T10:36:07.643Z,20.26
2018-11-11T10:37:07.687Z,20.23
2018-11-11T10:38:07.636Z,20.25
2018-11-11T10:39:07.674Z,20.27
2018-11-11T10:40:07.597Z,20.27
2018-11-11T10:41:07.587Z,20.35
2018-11-11T10:42:07.575Z,20.41
2018-11-11T10:43:07.578Z,20.48
2018-11-11T10:44:07.553Z,20.61
2018-11-11T10:45:07.542Z,20.63
2018-11-11T10:46:07.549Z,20.78
2018-11-11T10:47:07.518Z,20.79
2018-11-11T10:48:07.523Z,20.81
2018-11-11T10:49:07.498Z,20.87
2018-11-11T10:50:07.486Z,20.93
2018-11-11T10:51:07.475Z,20.93
2018-11-11T10:52:07.476Z,21.05
2018-11-11T10:53:07.472Z,21.01
2018-11-11T10:54:07.504Z,21.00
2018-11-11T10:55:07.430Z,21.12
2018-11-11T10:56:07.421Z,21.22
2018-11-11T10:57:07.422Z,21.33
2018-11-11T10:58:07.433Z,21.37
2018-11-11T10:59:07.387Z,21.46
2018-11-11T11:00:07.402Z,21.52
2018-11-11T11:01:07.379Z,21.55
2018-11-11T11:02:07.360Z,21.71
2018-11-11T11:03:07.342Z,21.63
2018-11-11T11:04:07.373Z,21.70
2018-11-11T11:05:07.323Z,21.75
2018-11-11T11:06:07.396Z,21.85
2018-11-11T11:07:07.302Z,21.90
2018-11-11T11:08:07.290Z,21.99
2018-11-11T11:09:07.294Z,21.98
2018-11-11T11:10:07.278Z,22.14
2018-11-11T11:11:07.254Z,22.23
2018-11-11T11:12:07.245Z,22.35
2018-11-11T11:13:07.253Z,22.41
2018-11-11T11:14:07.238Z,22.56
2018-11-11T11:15:07.211Z,22.56
2018-11-11T11:16:07.208Z,22.70
2018-11-11T11:17:07.188Z,22.76
2018-11-11T11:18:07.178Z,22.88
2018-11-11T11:19:07.184Z,22.93
2018-11-11T11:20:07.158Z,22.97
2018-11-11T11:21:07.145Z,23.03
2018-11-11T11:22:07.148Z,23.15
2018-11-11T11:23:07.182Z,23.18
2018-11-11T11:24:07.128Z,22.94
2018-11-11T11:25:07.104Z,22.78
2018-11-11T11:26:07.096Z,22.54
2018-11-11T11:27:07.087Z,22.70
2018-11-11T11:28:07.080Z,22.63
2018-11-11T11:29:07.078Z,22.49
2018-11-11T11:30:07.049Z,22.41
2018-11-11T11:31:07.039Z,22.42
2018-11-11T11:32:07.092Z,22.45
2018-11-11T11:33:07.017Z,22.33
2018-11-11T11:34:07.050Z,22.29
2018-11-11T11:35:07.052Z,22.41
2018-11-11T11:36:06.985Z,22.60
2018-11-11T11:37:06.977Z,22.88
2018-11-11T11:38:07.002Z,23.11
2018-11-11T11:39:06.952Z,23.31
2018-11-11T11:40:06.965Z,23.39
2018-11-11T11:41:06.990Z,23.39
2018-11-11T11:42:06.920Z,23.54
2018-11-11T11:43:06.921Z,23.78
2018-11-11T11:44:06.959Z,23.94
2018-11-11T11:45:06.904Z,24.11
2018-11-11T11:46:06.882Z,24.24
2018-11-11T11:47:06.865Z,24.36
2018-11-11T11:48:06.859Z,24.56
2018-11-11T11:49:06.841Z,24.61
2018-11-11T11:50:06.949Z,24.84
2018-11-11T11:51:06.831Z,24.93
2018-11-11T11:52:06.838Z,25.11
2018-11-11T11:53:06.803Z,25.24
2018-11-11T11:54:06.794Z,25.42
2018-11-11T11:55:06.790Z,25.48
2018-11-11T11:56:06.765Z,25.61
2018-11-11T11:57:06.761Z,25.64
2018-11-11T11:58:06.757Z,25.83
2018-11-11T11:59:06.731Z,26.00
2018-11-11T12:00:06.738Z,26.08
2018-11-11T12:01:06.709Z,26.20
2018-11-11T12:02:06.757Z,26.29
2018-11-11T12:03:06.697Z,26.41
2018-11-11T12:04:06.680Z,26.56
2018-11-11T12:05:06.679Z,26.61
2018-11-11T12:06:06.655Z,26.68
2018-11-11T12:07:06.643Z,26.78
2018-11-11T12:08:06.631Z,26.83
2018-11-11T12:09:06.716Z,26.93
2018-11-11T12:10:06.625Z,26.91
2018-11-11T12:11:06.600Z,27.03
2018-11-11T12:12:06.591Z,27.11
2018-11-11T12:13:06.576Z,27.25
2018-11-11T12:14:06.563Z,27.24
2018-11-11T12:15:06.577Z,27.38
2018-11-11T12:16:06.541Z,27.39
2018-11-11T12:17:06.615Z,27.52
2018-11-11T12:18:06.520Z,27.53
2018-11-11T12:19:06.506Z,27.62
2018-11-11T12:20:06.510Z,27.62
2018-11-11T12:21:06.493Z,27.72
2018-11-11T12:22:06.475Z,27.71
2018-11-11T12:23:06.534Z,27.80
2018-11-11T12:24:06.451Z,27.81
2018-11-11T12:25:06.455Z,27.86
2018-11-11T12:26:06.429Z,27.87
2018-11-11T12:27:06.421Z,27.93
2018-11-11T12:28:06.406Z,27.88
2018-11-11T12:29:06.397Z,27.87
2018-11-11T12:30:06.403Z,27.71
2018-11-11T12:31:06.377Z,27.40
2018-11-11T12:32:06.361Z,27.18
2018-11-11T12:33:06.365Z,26.91
2018-11-11T12:34:06.342Z,26.49
2018-11-11T12:35:06.402Z,26.47
2018-11-11T12:36:06.320Z,26.44
2018-11-11T12:37:06.308Z,26.56
2018-11-11T12:38:06.295Z,26.60
2018-11-11T12:39:06.411Z,26.88
2018-11-11T12:40:06.473Z,27.18
2018-11-11T12:41:06.263Z,27.28
2018-11-11T12:42:06.255Z,27.50
2018-11-11T12:43:06.244Z,27.52
2018-11-11T12:44:06.231Z,27.59
2018-11-11T12:45:06.244Z,27.72
2018-11-11T12:46:06.207Z,27.81
2018-11-11T12:47:06.239Z,27.83
2018-11-11T12:48:06.186Z,27.71
2018-11-11T12:49:06.244Z,27.69
2018-11-11T12:50:06.243Z,27.53
2018-11-11T12:51:06.158Z,27.12
2018-11-11T12:52:06.141Z,26.68